createdAt,value
2022-10-03T00:00:18.485Z,23.48
2022-10-03T00:03:24.120Z,23.48
2022-10-03T00:06:02.351Z,23.48
2022-10-03T00:08:51.962Z,23.49
2022-10-03T00:11:29.032Z,23.48
2022-10-03T00:14:03.197Z,23.49
2022-10-03T00:16:40.530Z,23.49
2022-10-03T00:19:15.372Z,23.48
2022-10-03T00:21:54.083Z,23.48
2022-10-03T00:24:35.812Z,23.48
2022-10-03T00:27:09.162Z,23.49
2022-10-03T00:29:48.041Z,23.48
2022-10-03T00:32:43.424Z,23.48
2022-10-03T00:35:25.929Z,23.46
2022-10-03T00:38:08.269Z,23.48
2022-10-03T00:41:25.039Z,23.49
2022-10-03T00:44:45.856Z,23.48
2022-10-03T00:47:50.579Z,23.49
2022-10-03T00:50:39.650Z,23.48
2022-10-03T00:53:42.635Z,23.48
2022-10-03T00:56:40.416Z,23.48
2022-10-03T00:59:20.600Z,23.47
2022-10-03T01:01:49.891Z,23.47
2022-10-03T01:04:41.293Z,23.48
2022-10-03T01:07:25.535Z,23.47
2022-10-03T01:10:09.577Z,23.48
2022-10-03T01:12:54.030Z,23.48
2022-10-03T01:15:30.506Z,23.48
2022-10-03T01:18:17.315Z,23.48
2022-10-03T01:20:55.407Z,23.48
2022-10-03T01:24:23.299Z,23.47
2022-10-03T01:26:57.881Z,23.48
2022-10-03T01:30:02.332Z,23.47
2022-10-03T01:32:36.664Z,23.47
2022-10-03T01:35:16.033Z,23.47
2022-10-03T01:37:51.494Z,23.46
2022-10-03T01:40:26.301Z,23.47
2022-10-03T01:43:03.572Z,23.47
2022-10-03T01:45:43.317Z,23.47
2022-10-03T01:48:16.204Z,23.47
2022-10-03T01:50:50.622Z,23.46
2022-10-03T01:53:26.665Z,23.45
2022-10-03T01:56:00.234Z,23.46
2022-10-03T01:58:31.480Z,23.45
2022-10-03T02:01:08.478Z,23.45
2022-10-03T02:03:39.038Z,23.44
2022-10-03T02:06:11.206Z,23.44
2022-10-03T02:08:50.929Z,23.44
2022-10-03T02:11:29.756Z,23.45
2022-10-03T02:14:03.007Z,23.44
2022-10-03T02:16:42.169Z,23.44
2022-10-03T02:19:18.360Z,23.43
2022-10-03T02:21:48.995Z,23.44
2022-10-03T02:24:39.796Z,23.43
2022-10-03T02:27:28.852Z,23.42
2022-10-03T02:30:15.765Z,23.43
2022-10-03T02:33:41.420Z,23.42
2022-10-03T02:36:32.111Z,23.42
2022-10-03T02:39:40.743Z,23.42
2022-10-03T02:42:57.448Z,23.42
2022-10-03T02:46:08.170Z,23.43
2022-10-03T02:49:24.484Z,23.43
2022-10-03T02:52:34.549Z,23.42
2022-10-03T02:55:28.989Z,23.42
2022-10-03T02:58:29.985Z,23.41
2022-10-03T03:01:46.259Z,23.40
2022-10-03T03:05:06.888Z,23.40
2022-10-03T03:07:51.953Z,23.41
2022-10-03T03:11:01.301Z,23.40
2022-10-03T03:14:09.580Z,23.40
2022-10-03T03:16:57.617Z,23.41
2022-10-03T03:19:51.157Z,23.41
2022-10-03T03:22:50.621Z,23.40
2022-10-03T03:25:50.061Z,23.40
2022-10-03T03:28:32.524Z,23.41
2022-10-03T03:31:07.676Z,23.40
2022-10-03T03:33:44.883Z,23.40
2022-10-03T03:36:18.427Z,23.40
2022-10-03T03:38:57.713Z,23.38
2022-10-03T03:41:38.676Z,23.38
2022-10-03T03:44:25.985Z,23.37
2022-10-03T03:47:12.407Z,23.38
2022-10-03T03:49:59.351Z,23.38
2022-10-03T03:52:47.351Z,23.37
2022-10-03T03:55:37.928Z,23.37
2022-10-03T03:58:22.684Z,23.37
2022-10-03T04:01:12.003Z,23.37
2022-10-03T04:03:53.205Z,23.37
2022-10-03T04:06:36.459Z,23.36
2022-10-03T04:09:43.548Z,23.37
2022-10-03T04:12:21.868Z,23.37
2022-10-03T04:15:23.417Z,23.36
2022-10-03T04:18:19.033Z,23.36
2022-10-03T04:21:19.048Z,23.36
2022-10-03T04:23:59.950Z,23.35
2022-10-03T04:26:47.472Z,23.34
2022-10-03T04:29:56.903Z,23.35
2022-10-03T04:32:53.232Z,23.35
2022-10-03T04:35:52.975Z,23.35
2022-10-03T04:38:27.471Z,23.35
2022-10-03T04:41:05.574Z,23.35
2022-10-03T04:43:43.872Z,23.35
2022-10-03T04:46:25.289Z,23.34
2022-10-03T04:49:02.074Z,23.35
2022-10-03T04:51:42.922Z,23.35
2022-10-03T04:54:19.171Z,23.35
2022-10-03T04:56:53.927Z,23.34
2022-10-03T04:59:47.746Z,23.35
2022-10-03T05:02:46.271Z,23.33
2022-10-03T05:05:32.947Z,23.32
2022-10-03T05:08:07.713Z,23.32
2022-10-03T05:11:06.800Z,23.32
2022-10-03T05:13:48.691Z,23.34
2022-10-03T05:16:23.099Z,23.36
2022-10-03T05:18:55.292Z,23.37
2022-10-03T05:21:33.297Z,23.43
2022-10-03T05:24:08.509Z,23.41
2022-10-03T05:26:46.395Z,23.42
2022-10-03T05:29:25.380Z,23.42
2022-10-03T05:32:07.827Z,23.43
2022-10-03T05:34:50.286Z,23.47
2022-10-03T05:37:47.738Z,23.45
2022-10-03T05:40:19.570Z,23.48
2022-10-03T05:43:02.006Z,23.46
2022-10-03T05:45:33.531Z,23.43
2022-10-03T05:48:18.942Z,23.40
2022-10-03T05:51:13.541Z,23.42
2022-10-03T05:54:19.543Z,23.43
2022-10-03T05:57:32.728Z,23.42
2022-10-03T06:00:15.664Z,23.44
2022-10-03T06:03:25.995Z,23.43
2022-10-03T06:06:20.211Z,23.45
2022-10-03T06:09:11.924Z,23.47
2022-10-03T06:11:54.737Z,23.47
2022-10-03T06:14:33.505Z,23.49
2022-10-03T06:17:29.107Z,23.49
2022-10-03T06:20:00.135Z,23.51
2022-10-03T06:23:06.491Z,23.50
2022-10-03T06:26:01.628Z,23.48
2022-10-03T06:29:13.322Z,23.51
2022-10-03T06:32:23.766Z,23.50
2022-10-03T06:35:26.149Z,23.51
2022-10-03T06:38:14.416Z,23.49
2022-10-03T06:41:20.778Z,23.50
2022-10-03T06:44:08.018Z,23.50
2022-10-03T06:47:21.680Z,23.49
2022-10-03T06:50:19.977Z,23.21
2022-10-03T06:53:29.652Z,23.36
2022-10-03T06:56:46.305Z,23.43
2022-10-03T06:59:45.348Z,23.43
2022-10-03T07:02:50.384Z,23.47
2022-10-03T07:06:10.332Z,23.46
2022-10-03T07:09:39.559Z,23.46
2022-10-03T07:12:48.236Z,23.46
2022-10-03T07:16:20.623Z,23.45
2022-10-03T07:19:29.428Z,23.45
2022-10-03T07:22:54.915Z,23.45
2022-10-03T07:26:16.393Z,23.45
2022-10-03T07:29:15.208Z,23.46
2022-10-03T07:31:58.763Z,23.46
2022-10-03T07:35:08.871Z,23.46
2022-10-03T07:38:43.964Z,23.47
2022-10-03T07:41:41.203Z,23.46
2022-10-03T07:44:48.603Z,23.47
2022-10-03T07:48:03.244Z,23.47
2022-10-03T07:51:24.062Z,23.48
2022-10-03T07:55:07.115Z,23.51
2022-10-03T07:57:50.850Z,23.47
2022-10-03T08:00:23.506Z,23.48
2022-10-03T08:03:53.346Z,23.45
2022-10-03T08:06:26.570Z,23.46
2022-10-03T08:09:36.596Z,23.46
2022-10-03T08:12:21.003Z,23.48
2022-10-03T08:14:59.052Z,23.47
2022-10-03T08:18:24.675Z,23.47
2022-10-03T08:20:55.319Z,23.45
2022-10-03T08:24:07.098Z,23.46
2022-10-03T08:26:51.145Z,23.46
2022-10-03T08:29:39.198Z,23.45
2022-10-03T08:33:12.919Z,23.46
2022-10-03T08:36:12.223Z,23.46
2022-10-03T08:39:12.663Z,23.46
2022-10-03T08:42:36.099Z,23.46
2022-10-03T08:45:43.816Z,23.46
2022-10-03T08:48:59.805Z,23.46
2022-10-03T08:52:21.555Z,23.49
2022-10-03T08:55:15.788Z,23.47
2022-10-03T08:58:35.698Z,23.46
2022-10-03T09:01:17.187Z,23.47
2022-10-03T09:04:44.453Z,23.48
2022-10-03T09:07:28.281Z,23.47
2022-10-03T09:10:47.531Z,23.48
2022-10-03T09:14:03.388Z,23.46
2022-10-03T09:16:44.564Z,23.47
2022-10-03T09:19:53.379Z,23.46
2022-10-03T09:22:59.747Z,23.47
2022-10-03T09:25:44.677Z,23.47
2022-10-03T09:28:50.983Z,23.46
2022-10-03T09:32:15.667Z,23.46
2022-10-03T09:35:27.127Z,23.47
2022-10-03T09:38:58.595Z,23.45
2022-10-03T09:42:24.274Z,23.47
2022-10-03T09:45:24.366Z,23.50
2022-10-03T09:48:33.946Z,23.49
2022-10-03T09:51:23.736Z,23.49
2022-10-03T09:54:44.214Z,23.48
2022-10-03T09:58:10.297Z,23.47
2022-10-03T10:00:54.504Z,23.47
2022-10-03T10:04:09.990Z,23.47
2022-10-03T10:07:23.781Z,23.48
2022-10-03T10:10:40.617Z,23.46
2022-10-03T10:14:07.315Z,23.48
2022-10-03T10:17:05.103Z,23.49
2022-10-03T10:19:48.432Z,23.46
2022-10-03T10:22:58.729Z,23.48
2022-10-03T10:25:38.753Z,23.48
2022-10-03T10:28:53.875Z,23.50
2022-10-03T10:32:20.623Z,23.49
2022-10-03T10:35:45.103Z,23.49
2022-10-03T10:38:37.667Z,23.53
2022-10-03T10:41:51.695Z,23.50
2022-10-03T10:45:03.377Z,23.50
2022-10-03T10:48:46.779Z,23.49
2022-10-03T10:52:00.948Z,23.49
2022-10-03T10:55:45.939Z,23.50
2022-10-03T10:58:58.931Z,23.52
2022-10-03T11:02:08.200Z,23.51
2022-10-03T11:05:44.403Z,23.50
2022-10-03T11:09:10.306Z,23.50
2022-10-03T11:12:22.883Z,23.50
2022-10-03T11:15:55.834Z,23.49
2022-10-03T11:19:19.252Z,23.48
2022-10-03T11:22:50.918Z,23.48
2022-10-03T11:26:06.700Z,23.47
2022-10-03T11:29:16.013Z,23.47
2022-10-03T11:32:35.014Z,23.49
2022-10-03T11:36:20.262Z,23.50
2022-10-03T11:38:55.205Z,23.51
2022-10-03T11:41:30.584Z,23.50
2022-10-03T11:44:17.051Z,23.49
2022-10-03T11:47:34.059Z,23.49
2022-10-03T11:50:31.283Z,23.49
2022-10-03T11:53:14.994Z,23.49
2022-10-03T11:55:46.275Z,23.50
2022-10-03T11:58:32.512Z,23.49
2022-10-03T12:01:16.589Z,23.49
2022-10-03T12:03:51.352Z,23.48
2022-10-03T12:06:55.124Z,23.48
2022-10-03T12:09:31.149Z,23.49
2022-10-03T12:12:04.058Z,23.41
2022-10-03T12:14:35.713Z,23.43
2022-10-03T12:17:12.358Z,23.46
2022-10-03T12:19:50.761Z,23.48
2022-10-03T12:22:35.695Z,23.49
2022-10-03T12:25:08.598Z,23.50
2022-10-03T12:27:48.400Z,23.49
2022-10-03T12:30:18.337Z,23.48
2022-10-03T12:32:59.006Z,23.48
2022-10-03T12:35:41.059Z,23.49
2022-10-03T12:38:22.873Z,23.47
2022-10-03T12:40:59.160Z,23.48
2022-10-03T12:43:38.847Z,23.47
2022-10-03T12:46:11.132Z,23.47
2022-10-03T12:48:48.139Z,23.48
2022-10-03T12:51:32.479Z,23.48
2022-10-03T12:54:09.091Z,23.46
2022-10-03T12:56:44.833Z,23.50
2022-10-03T12:59:24.741Z,23.49
2022-10-03T13:02:19.115Z,23.49
2022-10-03T13:04:55.294Z,23.47
2022-10-03T13:07:28.501Z,23.48
2022-10-03T13:10:16.152Z,23.48
2022-10-03T13:12:49.869Z,23.48
2022-10-03T13:15:56.548Z,23.51
2022-10-03T13:18:43.178Z,23.49
2022-10-03T13:21:44.009Z,23.49
2022-10-03T13:24:07.286Z,23.48
2022-10-03T13:26:51.043Z,23.48
2022-10-03T13:29:40.521Z,23.49
2022-10-03T13:32:18.833Z,23.48
2022-10-03T13:35:32.657Z,23.49
2022-10-03T13:38:47.219Z,23.49
2022-10-03T13:41:27.688Z,23.49
2022-10-03T13:44:01.392Z,23.49
2022-10-03T13:46:37.405Z,23.49
2022-10-03T13:49:11.382Z,23.50
2022-10-03T13:51:45.869Z,23.50
2022-10-03T13:54:21.354Z,23.52
2022-10-03T13:56:57.894Z,23.53
2022-10-03T13:59:57.110Z,23.53
2022-10-03T14:02:48.072Z,23.53
2022-10-03T14:05:41.874Z,23.53
2022-10-03T14:08:18.748Z,23.55
2022-10-03T14:11:26.014Z,23.53
2022-10-03T14:14:40.239Z,23.54
2022-10-03T14:17:12.795Z,23.57
2022-10-03T14:19:49.254Z,23.56
2022-10-03T14:22:34.308Z,23.57
2022-10-03T14:25:22.763Z,23.56
2022-10-03T14:27:55.832Z,23.56
2022-10-03T14:30:26.670Z,23.57
2022-10-03T14:33:06.933Z,23.55
2022-10-03T14:35:39.825Z,23.56
2022-10-03T14:38:45.255Z,23.55
2022-10-03T14:41:16.728Z,23.57
2022-10-03T14:43:48.158Z,23.57
2022-10-03T14:46:20.751Z,23.58
2022-10-03T14:48:51.264Z,23.55
2022-10-03T14:51:23.796Z,23.56
2022-10-03T14:53:55.600Z,23.60
2022-10-03T14:56:24.904Z,23.61
2022-10-03T14:58:54.478Z,23.59
2022-10-03T15:01:25.335Z,23.57
2022-10-03T15:04:01.744Z,23.57
2022-10-03T15:06:58.201Z,23.56
2022-10-03T15:09:33.638Z,23.55
2022-10-03T15:12:07.485Z,23.56
2022-10-03T15:14:39.273Z,23.56
2022-10-03T15:17:19.556Z,23.61
2022-10-03T15:19:50.278Z,23.64
2022-10-03T15:22:30.683Z,23.67
2022-10-03T15:25:03.317Z,23.63
2022-10-03T15:27:31.788Z,23.64
2022-10-03T15:30:02.949Z,23.62
2022-10-03T15:32:37.465Z,23.63
2022-10-03T15:35:06.965Z,23.60
2022-10-03T15:37:38.004Z,23.61
2022-10-03T15:40:12.615Z,23.60
2022-10-03T15:42:52.986Z,23.64
2022-10-03T15:45:27.712Z,23.63
2022-10-03T15:47:59.284Z,23.64
2022-10-03T15:50:30.020Z,23.62
2022-10-03T15:53:31.553Z,23.64
2022-10-03T15:56:11.293Z,23.62
2022-10-03T15:58:40.291Z,23.62
2022-10-03T16:01:11.362Z,23.66
2022-10-03T16:03:47.405Z,23.69
2022-10-03T16:06:20.585Z,23.68
2022-10-03T16:08:58.425Z,23.65
2022-10-03T16:11:27.741Z,23.64
2022-10-03T16:14:11.924Z,23.64
2022-10-03T16:16:42.360Z,23.63
2022-10-03T16:19:33.524Z,23.63
2022-10-03T16:22:22.505Z,23.61
2022-10-03T16:25:01.392Z,23.63
2022-10-03T16:27:31.030Z,23.62
2022-10-03T16:30:17.083Z,23.61
2022-10-03T16:32:50.197Z,23.60
2022-10-03T16:35:34.113Z,23.58
2022-10-03T16:38:03.949Z,23.61
2022-10-03T16:40:32.457Z,23.61
2022-10-03T16:43:02.285Z,23.62
2022-10-03T16:45:32.537Z,23.60
2022-10-03T16:48:21.291Z,23.58
2022-10-03T16:50:54.032Z,23.59
2022-10-03T16:53:22.817Z,23.56
2022-10-03T16:55:57.872Z,23.59
2022-10-03T16:58:30.397Z,23.58
2022-10-03T17:01:25.426Z,23.65
2022-10-03T17:03:52.377Z,23.62
2022-10-03T17:06:25.404Z,23.60
2022-10-03T17:08:54.393Z,23.59
2022-10-03T17:11:26.422Z,23.58
2022-10-03T17:13:56.736Z,23.62
2022-10-03T17:16:34.800Z,23.60
2022-10-03T17:19:17.086Z,23.62
2022-10-03T17:21:54.024Z,23.62
2022-10-03T17:24:38.208Z,23.67
2022-10-03T17:27:13.573Z,23.63
2022-10-03T17:29:46.302Z,23.61
2022-10-03T17:32:22.437Z,23.62
2022-10-03T17:34:55.711Z,23.60
2022-10-03T17:37:57.122Z,23.57
2022-10-03T17:40:37.343Z,23.57
2022-10-03T17:43:07.977Z,23.58
2022-10-03T17:45:41.214Z,23.58
2022-10-03T17:48:15.623Z,23.58
2022-10-03T17:50:54.245Z,23.58
2022-10-03T17:53:27.261Z,23.57
2022-10-03T17:55:58.272Z,23.58
2022-10-03T17:58:29.654Z,23.57
2022-10-03T18:01:05.539Z,23.58
2022-10-03T18:03:36.626Z,23.56
2022-10-03T18:06:35.431Z,23.60
2022-10-03T18:09:10.468Z,23.62
2022-10-03T18:11:40.393Z,23.53
2022-10-03T18:14:14.879Z,23.48
2022-10-03T18:16:46.089Z,23.46
2022-10-03T18:19:24.489Z,23.51
2022-10-03T18:22:02.302Z,23.52
2022-10-03T18:24:54.289Z,23.52
2022-10-03T18:27:51.437Z,23.52
2022-10-03T18:30:21.403Z,23.53
2022-10-03T18:32:49.865Z,23.54
2022-10-03T18:35:21.587Z,23.55
2022-10-03T18:38:15.287Z,23.56
2022-10-03T18:40:50.110Z,23.54
2022-10-03T18:43:34.794Z,23.57
2022-10-03T18:46:16.408Z,23.57
2022-10-03T18:49:15.816Z,23.56
2022-10-03T18:51:43.108Z,23.55
2022-10-03T18:54:24.984Z,23.55
2022-10-03T18:57:12.125Z,23.55
2022-10-03T18:59:47.903Z,23.53
2022-10-03T19:02:25.797Z,23.56
2022-10-03T19:04:57.285Z,23.56
2022-10-03T19:07:26.912Z,23.54
2022-10-03T19:10:25.999Z,23.55
2022-10-03T19:13:02.809Z,23.54
2022-10-03T19:15:43.888Z,23.54
2022-10-03T19:18:22.016Z,23.54
2022-10-03T19:20:52.230Z,23.53
2022-10-03T19:23:26.683Z,23.53
2022-10-03T19:25:57.877Z,23.53
2022-10-03T19:28:30.719Z,23.54
2022-10-03T19:31:02.370Z,23.55
2022-10-03T19:33:31.241Z,23.53
2022-10-03T19:36:05.078Z,23.54
2022-10-03T19:38:35.338Z,23.55
2022-10-03T19:41:06.978Z,23.54
2022-10-03T19:43:43.087Z,23.53
2022-10-03T19:46:27.034Z,23.55
2022-10-03T19:49:23.903Z,23.55
2022-10-03T19:51:52.631Z,23.53
2022-10-03T19:54:32.358Z,23.51
2022-10-03T19:57:02.727Z,23.53
2022-10-03T19:59:45.355Z,23.55
2022-10-03T20:02:14.509Z,23.54
2022-10-03T20:04:42.990Z,23.54
2022-10-03T20:07:17.315Z,23.54
2022-10-03T20:09:59.642Z,23.54
2022-10-03T20:12:29.879Z,23.54
2022-10-03T20:15:02.146Z,23.55
2022-10-03T20:17:30.585Z,23.54
2022-10-03T20:20:08.037Z,23.55
2022-10-03T20:22:37.732Z,23.54
2022-10-03T20:25:08.157Z,23.55
2022-10-03T20:27:41.029Z,23.55
2022-10-03T20:30:25.989Z,23.54
2022-10-03T20:32:54.966Z,23.54
2022-10-03T20:35:25.483Z,23.59
2022-10-03T20:37:55.925Z,23.60
2022-10-03T20:40:30.724Z,23.59
2022-10-03T20:43:14.537Z,23.56
2022-10-03T20:45:44.400Z,23.56
2022-10-03T20:48:15.363Z,23.56
2022-10-03T20:50:46.658Z,23.56
2022-10-03T20:53:18.895Z,23.55
2022-10-03T20:55:50.463Z,23.55
2022-10-03T20:58:30.828Z,23.56
2022-10-03T21:01:03.120Z,23.57
2022-10-03T21:03:37.625Z,23.57
2022-10-03T21:06:15.856Z,23.58
2022-10-03T21:08:44.369Z,23.57
2022-10-03T21:11:21.067Z,23.59
2022-10-03T21:13:52.653Z,23.57
2022-10-03T21:16:24.412Z,23.58
2022-10-03T21:18:53.942Z,23.57
2022-10-03T21:21:26.528Z,23.58
2022-10-03T21:23:57.722Z,23.59
2022-10-03T21:26:32.228Z,23.61
2022-10-03T21:29:18.789Z,23.60
2022-10-03T21:31:51.574Z,23.59
2022-10-03T21:34:26.755Z,23.59
2022-10-03T21:37:05.075Z,23.60
2022-10-03T21:39:41.478Z,23.59
2022-10-03T21:42:16.848Z,23.59
2022-10-03T21:45:00.730Z,23.58
2022-10-03T21:47:43.178Z,23.59
2022-10-03T21:50:17.012Z,23.59
2022-10-03T21:53:07.955Z,23.57
2022-10-03T21:55:52.939Z,23.57
2022-10-03T21:58:42.788Z,23.58
2022-10-03T22:01:15.583Z,23.56
2022-10-03T22:03:51.701Z,23.57
2022-10-03T22:06:24.087Z,23.57
2022-10-03T22:08:52.633Z,23.55
2022-10-03T22:11:34.766Z,23.55
2022-10-03T22:14:11.437Z,23.55
2022-10-03T22:16:43.429Z,23.54
2022-10-03T22:19:21.301Z,23.55
2022-10-03T22:22:02.101Z,23.55
2022-10-03T22:24:38.280Z,23.55
2022-10-03T22:27:10.825Z,23.54
2022-10-03T22:29:45.124Z,23.54
2022-10-03T22:32:16.569Z,23.55
2022-10-03T22:34:51.852Z,23.53
2022-10-03T22:37:20.196Z,23.55
2022-10-03T22:39:48.662Z,23.54
2022-10-03T22:42:17.049Z,23.55
2022-10-03T22:44:48.860Z,23.53
2022-10-03T22:47:22.240Z,23.53
2022-10-03T22:49:58.686Z,23.52
2022-10-03T22:52:28.741Z,23.53
2022-10-03T22:54:57.405Z,23.53
2022-10-03T22:57:26.326Z,23.53
2022-10-03T22:59:57.325Z,23.52
2022-10-03T23:02:30.943Z,23.52
2022-10-03T23:05:02.358Z,23.53
2022-10-03T23:07:56.417Z,23.52
2022-10-03T23:10:38.935Z,23.52
2022-10-03T23:13:11.506Z,23.52
2022-10-03T23:15:40.600Z,23.52
2022-10-03T23:18:35.800Z,23.52
2022-10-03T23:21:09.321Z,23.51
2022-10-03T23:24:01.128Z,23.51
2022-10-03T23:27:11.388Z,23.51
2022-10-03T23:29:40.750Z,23.50
2022-10-03T23:32:09.485Z,23.51
2022-10-03T23:34:49.152Z,23.50
2022-10-03T23:37:43.393Z,23.51
2022-10-03T23:40:28.905Z,23.50
2022-10-03T23:43:02.162Z,23.51
2022-10-03T23:45:30.784Z,23.49
2022-10-03T23:48:05.755Z,23.50
2022-10-03T23:50:42.327Z,23.51
2022-10-03T23:53:21.953Z,23.49
2022-10-03T23:55:50.380Z,23.49
2022-10-03T23:58:26.105Z,23.49
